createdAt,value
2023-03-11T00:01:18.110Z,4.6
2023-03-11T00:04:18.115Z,4.5
2023-03-11T00:07:18.132Z,4.5
2023-03-11T00:10:18.144Z,4.5
2023-03-11T00:13:18.130Z,4.6
2023-03-11T00:16:18.165Z,4.6
2023-03-11T00:19:18.135Z,4.6
2023-03-11T00:22:18.133Z,4.6
2023-03-11T00:25:18.133Z,4.6
2023-03-11T00:28:18.127Z,4.6
2023-03-11T00:31:18.156Z,4.6
2023-03-11T00:34:18.119Z,4.6
2023-03-11T00:37:18.106Z,4.6
2023-03-11T00:40:18.112Z,4.6
2023-03-11T00:43:18.111Z,4.6
2023-03-11T00:46:18.297Z,4.6
2023-03-11T00:49:18.112Z,4.6
2023-03-11T00:52:18.093Z,4.6
2023-03-11T00:55:18.097Z,4.4
2023-03-11T00:58:18.091Z,4.4
2023-03-11T01:01:18.141Z,4.4
2023-03-11T01:04:18.156Z,4.4
2023-03-11T01:07:18.108Z,4.4
2023-03-11T01:10:18.098Z,4.4
2023-03-11T01:13:18.099Z,4.4
2023-03-11T01:16:18.150Z,4.4
2023-03-11T01:19:18.108Z,4.3
2023-03-11T01:22:18.103Z,4.3
2023-03-11T01:25:18.089Z,4.3
2023-03-11T01:28:18.085Z,4.3
2023-03-11T01:31:18.156Z,4.3
2023-03-11T01:34:18.087Z,4.3
2023-03-11T01:37:18.089Z,4.3
2023-03-11T01:40:18.092Z,4.3
2023-03-11T01:43:18.094Z,4.3
2023-03-11T01:46:18.085Z,4.3
2023-03-11T01:49:18.080Z,4.3
2023-03-11T01:52:18.093Z,4.3
2023-03-11T01:55:18.082Z,4.3
2023-03-11T01:58:18.096Z,4.2
2023-03-11T02:01:18.110Z,4.2
2023-03-11T02:04:18.072Z,4.2
2023-03-11T02:07:18.087Z,4.2
2023-03-11T02:10:18.100Z,4.2
2023-03-11T02:13:18.096Z,4.2
2023-03-11T02:16:18.137Z,4.2
2023-03-11T02:19:18.097Z,4.1
2023-03-11T02:22:18.077Z,4.1
2023-03-11T02:25:18.130Z,4.1
2023-03-11T02:28:18.110Z,4.1
2023-03-11T02:31:18.173Z,4.1
2023-03-11T02:34:18.076Z,4.1
2023-03-11T02:37:18.105Z,4.1
2023-03-11T02:40:18.086Z,4.1
2023-03-11T02:43:18.085Z,4.1
2023-03-11T02:46:18.212Z,4.1
2023-03-11T02:52:18.075Z,4
2023-03-11T02:55:18.101Z,4
2023-03-11T02:58:18.068Z,4
2023-03-11T03:01:18.140Z,3.9
2023-03-11T03:04:18.104Z,3.9
2023-03-11T03:07:18.074Z,3.9
2023-03-11T03:10:18.070Z,3.8
2023-03-11T03:13:18.068Z,3.8
2023-03-11T03:16:18.122Z,3.8
2023-03-11T03:19:18.085Z,3.7
2023-03-11T03:22:18.082Z,3.7
2023-03-11T03:25:18.081Z,3.7
2023-03-11T03:28:18.097Z,3.7
2023-03-11T03:31:18.176Z,3.7
2023-03-11T03:34:18.085Z,3.6
2023-03-11T03:37:18.074Z,3.6
2023-03-11T03:40:18.104Z,3.6
2023-03-11T03:43:18.071Z,3.6
2023-03-11T03:46:18.101Z,3.6
2023-03-11T03:49:18.086Z,3.6
2023-03-11T03:52:18.072Z,3.6
2023-03-11T03:55:18.088Z,3.6
2023-03-11T03:58:18.091Z,3.6
2023-03-11T04:01:18.086Z,3.6
2023-03-11T04:04:18.089Z,3.6
2023-03-11T04:07:18.093Z,3.6
2023-03-11T04:10:18.082Z,3.6
2023-03-11T04:13:18.095Z,3.6
2023-03-11T04:16:18.131Z,3.6
2023-03-11T04:19:18.060Z,3.6
2023-03-11T04:22:18.060Z,3.6
2023-03-11T04:25:18.061Z,3.6
2023-03-11T04:28:18.066Z,3.6
2023-03-11T04:31:18.109Z,3.6
2023-03-11T04:34:18.047Z,3.6
2023-03-11T04:37:18.069Z,3.6
2023-03-11T04:40:18.054Z,3.6
2023-03-11T04:43:18.047Z,3.6
2023-03-11T04:46:18.081Z,3.6
2023-03-11T04:49:18.046Z,3.7
2023-03-11T04:52:18.033Z,3.7
2023-03-11T04:55:18.038Z,3.7
2023-03-11T04:58:18.058Z,3.7
2023-03-11T05:01:18.063Z,3.7
2023-03-11T05:04:18.052Z,3.7
2023-03-11T05:07:18.037Z,3.7
2023-03-11T05:10:18.028Z,3.7
2023-03-11T05:13:18.043Z,3.6
2023-03-11T05:16:18.070Z,3.6
2023-03-11T05:19:18.032Z,3.6
2023-03-11T05:22:18.037Z,3.6
2023-03-11T05:25:18.030Z,3.6
2023-03-11T05:28:18.026Z,3.6
2023-03-11T05:34:18.036Z,3.6
2023-03-11T05:37:18.031Z,3.6
2023-03-11T05:40:18.025Z,3.7
2023-03-11T05:43:18.033Z,3.7
2023-03-11T05:46:18.072Z,3.7
2023-03-11T05:49:18.029Z,3.7
2023-03-11T05:52:18.040Z,3.7
2023-03-11T05:55:18.019Z,3.6
2023-03-11T05:58:18.069Z,3.6
2023-03-11T06:01:18.040Z,3.7
2023-03-11T06:04:18.090Z,3.7
2023-03-11T06:07:18.017Z,3.7
2023-03-11T06:10:18.022Z,3.7
2023-03-11T06:13:18.019Z,3.7
2023-03-11T06:16:18.017Z,3.7
2023-03-11T06:19:18.007Z,3.7
2023-03-11T06:22:17.997Z,3.7
2023-03-11T06:25:17.991Z,3.7
2023-03-11T06:28:18.008Z,3.7
2023-03-11T06:34:17.997Z,3.7
2023-03-11T06:37:18.016Z,3.7
2023-03-11T06:40:17.988Z,3.7
2023-03-11T06:43:18.004Z,3.7
2023-03-11T06:46:18.058Z,3.8
2023-03-11T06:49:17.997Z,3.8
2023-03-11T06:52:18.000Z,3.8
2023-03-11T06:55:18.017Z,3.8
2023-03-11T06:58:18.013Z,3.8
2023-03-11T07:01:18.141Z,3.8
2023-03-11T07:04:18.065Z,3.8
2023-03-11T07:07:17.996Z,3.8
2023-03-11T07:13:18.055Z,3.9
2023-03-11T07:16:18.188Z,3.9
2023-03-11T07:19:18.019Z,3.9
2023-03-11T07:22:17.993Z,3.9
2023-03-11T07:25:17.997Z,3.9
2023-03-11T07:28:18.006Z,3.9
2023-03-11T07:31:18.578Z,3.9
2023-03-11T07:34:18.014Z,3.9
2023-03-11T07:37:18.011Z,3.9
2023-03-11T07:43:17.981Z,3.9
2023-03-11T07:46:17.995Z,4
2023-03-11T07:49:17.979Z,4
2023-03-11T07:52:17.987Z,4.1
2023-03-11T07:55:17.993Z,4.1
2023-03-11T07:58:17.987Z,4.1
2023-03-11T08:01:17.978Z,4.2
2023-03-11T08:04:17.989Z,4.2
2023-03-11T08:07:17.981Z,4.2
2023-03-11T08:10:17.983Z,4.3
2023-03-11T08:13:17.976Z,4.3
2023-03-11T08:16:17.977Z,4.3
2023-03-11T08:19:17.974Z,4.3
2023-03-11T08:22:17.976Z,4.3
2023-03-11T08:25:17.979Z,4.3
2023-03-11T08:28:17.990Z,4.3
2023-03-11T08:31:18.044Z,4.3
2023-03-11T08:34:17.964Z,4.3
2023-03-11T08:37:17.966Z,4.3
2023-03-11T08:40:17.969Z,4.3
2023-03-11T08:43:17.962Z,4.3
2023-03-11T08:46:18.008Z,4.3
2023-03-11T08:49:17.970Z,4.3
2023-03-11T08:52:17.969Z,4.4
2023-03-11T08:55:17.980Z,4.5
2023-03-11T08:58:17.962Z,4.5
2023-03-11T09:01:17.983Z,4.5
2023-03-11T09:04:17.988Z,4.5
2023-03-11T09:07:18.073Z,4.5
2023-03-11T09:10:17.968Z,4.5
2023-03-11T09:13:17.963Z,4.6
2023-03-11T09:16:18.046Z,4.6
2023-03-11T09:19:17.971Z,4.6
2023-03-11T09:25:17.964Z,4.5
2023-03-11T09:28:17.960Z,4.5
2023-03-11T09:31:18.026Z,4.5
2023-03-11T09:34:17.968Z,4.5
2023-03-11T09:37:17.956Z,4.5
2023-03-11T09:40:17.966Z,4.5
2023-03-11T09:43:17.975Z,4.5
2023-03-11T09:46:18.043Z,4.5
2023-03-11T09:49:17.977Z,4.5
2023-03-11T09:52:17.954Z,4.5
2023-03-11T09:55:17.952Z,4.6
2023-03-11T09:58:17.964Z,4.6
2023-03-11T10:01:17.950Z,4.7
2023-03-11T10:04:17.943Z,4.7
2023-03-11T10:07:17.946Z,4.7
2023-03-11T10:10:17.960Z,4.7
2023-03-11T10:13:17.950Z,4.8
2023-03-11T10:16:17.992Z,4.9
2023-03-11T10:19:17.977Z,4.9
2023-03-11T10:22:17.945Z,4.9
2023-03-11T10:25:17.959Z,4.9
2023-03-11T10:28:17.948Z,4.9
2023-03-11T10:31:17.973Z,4.9
2023-03-11T10:34:17.945Z,5
2023-03-11T10:40:17.953Z,5.1
2023-03-11T10:43:17.960Z,5.1
2023-03-11T10:46:18.042Z,5.2
2023-03-11T10:49:17.964Z,5.2
2023-03-11T10:52:17.952Z,5.3
2023-03-11T10:55:17.944Z,5.3
2023-03-11T10:58:17.943Z,5.3
2023-03-11T11:01:18.031Z,5.3
2023-03-11T11:04:18.016Z,5.3
2023-03-11T11:07:17.939Z,5.3
2023-03-11T11:10:17.944Z,5.3
2023-03-11T11:13:17.946Z,5.3
2023-03-11T11:16:17.984Z,5.3
2023-03-11T11:19:17.936Z,5.3
2023-03-11T11:22:17.943Z,5.4
2023-03-11T11:25:17.942Z,5.4
2023-03-11T11:28:17.936Z,5.4
2023-03-11T11:31:18.056Z,5.4
2023-03-11T11:34:17.929Z,5.4
2023-03-11T11:37:17.925Z,5.4
2023-03-11T11:40:17.973Z,5.4
2023-03-11T11:43:17.932Z,5.4
2023-03-11T11:46:17.963Z,5.4
2023-03-11T11:49:17.930Z,5.4
2023-03-11T11:52:17.927Z,5.4
2023-03-11T11:55:17.937Z,5.3
2023-03-11T11:58:17.916Z,5.3
2023-03-11T12:01:17.966Z,5.3
2023-03-11T12:04:17.933Z,5.4
2023-03-11T12:07:17.924Z,5.4
2023-03-11T12:10:23.080Z,5.4
2023-03-11T12:13:17.928Z,5.4
2023-03-11T12:16:17.951Z,5.4
2023-03-11T12:19:17.910Z,5.4
2023-03-11T12:22:17.914Z,5.5
2023-03-11T12:25:17.906Z,5.5
2023-03-11T12:28:17.916Z,5.5
2023-03-11T12:31:17.998Z,5.5
2023-03-11T12:34:17.902Z,5.5
2023-03-11T12:37:17.908Z,5.5
2023-03-11T12:40:17.904Z,5.5
2023-03-11T12:43:17.949Z,5.6
2023-03-11T12:46:18.032Z,5.6
2023-03-11T12:49:17.907Z,5.6
2023-03-11T12:52:17.909Z,5.6
2023-03-11T12:55:17.913Z,5.6
2023-03-11T12:58:17.907Z,5.7
2023-03-11T13:04:17.900Z,5.7
2023-03-11T13:07:17.897Z,5.7
2023-03-11T13:10:17.920Z,5.7
2023-03-11T13:13:17.947Z,5.7
2023-03-11T13:16:17.973Z,5.7
2023-03-11T13:19:18.146Z,5.7
2023-03-11T13:22:18.053Z,5.7
2023-03-11T13:25:17.907Z,5.7
2023-03-11T13:28:17.898Z,5.7
2023-03-11T13:31:18.006Z,5.7
2023-03-11T13:34:17.914Z,5.7
2023-03-11T13:37:17.908Z,5.7
2023-03-11T13:40:17.920Z,5.7
2023-03-11T13:43:17.894Z,5.7
2023-03-11T13:46:17.965Z,5.7
2023-03-11T13:49:17.894Z,5.7
2023-03-11T13:52:17.903Z,5.7
2023-03-11T13:55:17.902Z,5.7
2023-03-11T13:58:17.918Z,5.7
2023-03-11T14:01:17.946Z,5.7
2023-03-11T14:04:17.915Z,5.8
2023-03-11T14:07:17.922Z,5.8
2023-03-11T14:10:17.900Z,5.8
2023-03-11T14:16:17.979Z,5.8
2023-03-11T14:19:17.884Z,5.8
2023-03-11T14:22:17.874Z,5.8
2023-03-11T14:25:17.884Z,5.8
2023-03-11T14:28:17.875Z,5.8
2023-03-11T14:31:17.885Z,5.8
2023-03-11T14:34:17.882Z,5.8
2023-03-11T14:37:17.872Z,5.8
2023-03-11T14:40:17.859Z,5.8
2023-03-11T14:43:17.871Z,5.8
2023-03-11T14:46:17.895Z,5.8
2023-03-11T14:49:17.863Z,5.8
2023-03-11T14:52:17.883Z,5.8
2023-03-11T14:55:17.882Z,5.8
2023-03-11T14:58:17.861Z,5.8
2023-03-11T15:01:17.881Z,5.7
2023-03-11T15:04:17.877Z,5.7
2023-03-11T15:07:17.851Z,5.7
2023-03-11T15:10:17.857Z,5.8
2023-03-11T15:13:17.851Z,5.8
2023-03-11T15:16:17.902Z,5.8
2023-03-11T15:19:17.866Z,5.8
2023-03-11T15:22:17.842Z,5.9
2023-03-11T15:25:17.865Z,5.8
2023-03-11T15:28:17.860Z,5.8
2023-03-11T15:31:17.907Z,5.9
2023-03-11T15:34:17.865Z,5.9
2023-03-11T15:37:17.890Z,5.9
2023-03-11T15:40:17.860Z,5.9
2023-03-11T15:43:17.849Z,5.8
2023-03-11T15:46:17.936Z,5.8
2023-03-11T15:49:17.843Z,5.8
2023-03-11T15:52:17.857Z,5.7
2023-03-11T15:55:17.847Z,5.7
2023-03-11T15:58:17.856Z,5.6
2023-03-11T16:01:17.832Z,5.6
2023-03-11T16:04:17.973Z,5.6
2023-03-11T16:07:21.758Z,5.5
2023-03-11T16:10:17.827Z,5.4
2023-03-11T16:13:17.865Z,5.4
2023-03-11T16:16:18.039Z,5.3
2023-03-11T16:19:18.147Z,5.3
2023-03-11T16:22:17.831Z,5.3
2023-03-11T16:25:17.855Z,5.2
2023-03-11T16:28:17.856Z,5.2
2023-03-11T16:31:17.976Z,5.1
2023-03-11T16:34:17.822Z,5.1
2023-03-11T16:37:17.823Z,5
2023-03-11T16:40:17.827Z,5
2023-03-11T16:43:17.829Z,4.9
2023-03-11T16:46:17.875Z,4.9
2023-03-11T16:49:17.824Z,4.9
2023-03-11T16:52:17.949Z,4.8
2023-03-11T16:58:17.858Z,4.8
2023-03-11T17:01:17.873Z,4.7
2023-03-11T17:04:17.844Z,4.7
2023-03-11T17:07:17.847Z,4.7
2023-03-11T17:10:17.844Z,4.7
2023-03-11T17:13:19.184Z,4.6
2023-03-11T17:16:17.884Z,4.6
2023-03-11T17:19:17.840Z,4.6
2023-03-11T17:22:17.841Z,4.6
2023-03-11T17:25:17.861Z,4.5
2023-03-11T17:28:17.844Z,4.5
2023-03-11T17:31:17.894Z,4.5
2023-03-11T17:34:17.846Z,4.4
2023-03-11T17:37:17.846Z,4.4
2023-03-11T17:40:17.837Z,4.4
2023-03-11T17:43:17.843Z,4.4
2023-03-11T17:46:17.896Z,4.3
2023-03-11T17:49:17.828Z,4.3
2023-03-11T17:52:17.860Z,4.3
2023-03-11T17:55:17.836Z,4.3
2023-03-11T17:58:17.836Z,4.2
2023-03-11T18:01:17.822Z,4.2
2023-03-11T18:04:17.857Z,4.2
2023-03-11T18:07:17.824Z,4.2
2023-03-11T18:10:17.836Z,4.1
2023-03-11T18:13:18.079Z,4.1
2023-03-11T18:16:17.894Z,4.1
2023-03-11T18:19:17.820Z,4.1
2023-03-11T18:22:17.801Z,4.1
2023-03-11T18:25:17.808Z,4
2023-03-11T18:31:17.866Z,4
2023-03-11T18:34:17.807Z,3.9
2023-03-11T18:37:17.798Z,3.9
2023-03-11T18:40:17.801Z,3.9
2023-03-11T18:43:17.794Z,3.8
2023-03-11T18:49:17.795Z,3.8
2023-03-11T18:52:17.817Z,3.7
2023-03-11T18:55:17.843Z,3.7
2023-03-11T18:58:17.785Z,3.7
2023-03-11T19:01:17.832Z,3.6
2023-03-11T19:04:17.809Z,3.6
2023-03-11T19:07:17.798Z,3.5
2023-03-11T19:10:17.799Z,3.5
2023-03-11T19:13:17.794Z,3.5
2023-03-11T19:16:17.875Z,3.5
2023-03-11T19:22:17.919Z,3.4
2023-03-11T19:25:17.790Z,3.3
2023-03-11T19:28:17.802Z,3.3
2023-03-11T19:31:17.901Z,3.3
2023-03-11T19:34:17.795Z,3.3
2023-03-11T19:37:17.783Z,3.2
2023-03-11T19:40:17.816Z,3.2
2023-03-11T19:43:17.775Z,3.2
2023-03-11T19:46:17.855Z,3.2
2023-03-11T19:49:17.794Z,3.2
2023-03-11T19:52:17.837Z,3.1
2023-03-11T19:55:17.787Z,3.1
2023-03-11T19:58:17.791Z,3.1
2023-03-11T20:01:17.769Z,3.1
2023-03-11T20:04:17.856Z,3.1
2023-03-11T20:07:17.884Z,3
2023-03-11T20:10:17.820Z,3
2023-03-11T20:13:17.865Z,3
2023-03-11T20:16:18.844Z,3
2023-03-11T20:19:17.808Z,3
2023-03-11T20:22:17.795Z,3
2023-03-11T20:25:17.873Z,2.9
2023-03-11T20:28:17.763Z,2.9
2023-03-11T20:31:17.872Z,2.9
2023-03-11T20:34:17.808Z,2.9
2023-03-11T20:37:17.761Z,2.9
2023-03-11T20:40:17.801Z,2.9
2023-03-11T20:46:17.923Z,2.8
2023-03-11T20:52:17.792Z,2.8
2023-03-11T20:55:17.801Z,2.8
2023-03-11T20:58:17.809Z,2.8
2023-03-11T21:01:17.847Z,2.7
2023-03-11T21:04:17.831Z,2.7
2023-03-11T21:07:17.844Z,2.7
2023-03-11T21:10:17.759Z,2.7
2023-03-11T21:13:17.753Z,2.7
2023-03-11T21:16:17.869Z,2.6
2023-03-11T21:19:17.785Z,2.6
2023-03-11T21:22:17.860Z,2.6
2023-03-11T21:25:17.776Z,2.6
2023-03-11T21:28:17.742Z,2.6
2023-03-11T21:31:17.891Z,2.6
2023-03-11T21:34:17.954Z,2.6
2023-03-11T21:37:17.797Z,2.5
2023-03-11T21:40:17.798Z,2.5
2023-03-11T21:43:17.792Z,2.5
2023-03-11T21:46:17.917Z,2.5
2023-03-11T21:49:17.793Z,2.5
2023-03-11T21:52:17.866Z,2.5
2023-03-11T21:55:17.866Z,2.5
2023-03-11T21:58:17.806Z,2.5
2023-03-11T22:01:17.856Z,2.4
2023-03-11T22:04:17.737Z,2.4
2023-03-11T22:07:17.874Z,2.4
2023-03-11T22:10:17.750Z,2.4
2023-03-11T22:13:17.849Z,2.4
2023-03-11T22:16:17.819Z,2.4
2023-03-11T22:19:17.898Z,2.4
2023-03-11T22:22:17.819Z,2.3
2023-03-11T22:25:17.735Z,2.3
2023-03-11T22:28:17.752Z,2.3
2023-03-11T22:31:17.783Z,2.3
2023-03-11T22:34:17.731Z,2.3
2023-03-11T22:37:17.728Z,2.3
2023-03-11T22:43:17.741Z,2.2
2023-03-11T22:46:17.756Z,2.2
2023-03-11T22:49:17.752Z,2.2
2023-03-11T22:52:17.735Z,2.2
2023-03-11T22:55:17.732Z,2.2
2023-03-11T22:58:17.744Z,2.2
2023-03-11T23:01:17.728Z,2.2
2023-03-11T23:04:17.811Z,2.2
2023-03-11T23:07:17.724Z,2.2
2023-03-11T23:10:20.524Z,2.2
2023-03-11T23:13:17.724Z,2.2
2023-03-11T23:16:17.743Z,2.2
2023-03-11T23:19:17.734Z,2.2
2023-03-11T23:22:17.734Z,2.2
2023-03-11T23:25:17.713Z,2.2
2023-03-11T23:28:17.719Z,2.2
2023-03-11T23:31:17.769Z,2.2
2023-03-11T23:34:17.731Z,2.2
2023-03-11T23:37:17.712Z,2.2
2023-03-11T23:40:17.719Z,2.2
2023-03-11T23:43:17.729Z,2.2
2023-03-11T23:46:17.774Z,2.1
2023-03-11T23:49:17.725Z,2.1
2023-03-11T23:52:17.713Z,2.1
2023-03-11T23:55:17.708Z,2.1
2023-03-11T23:58:17.716Z,2.1
